createdAt,value
2022-08-09T00:01:00.962Z,100.00
2022-08-09T00:04:05.874Z,100.00
2022-08-09T00:06:22.939Z,100.00
2022-08-09T00:08:52.335Z,100.00
2022-08-09T00:11:55.092Z,100.00
2022-08-09T00:14:21.745Z,100.00
2022-08-09T00:16:52.677Z,100.00
2022-08-09T00:19:21.765Z,100.00
2022-08-09T00:21:56.373Z,100.00
2022-08-09T00:24:27.459Z,100.00
2022-08-09T00:26:57.497Z,100.00
2022-08-09T00:29:39.904Z,100.00
2022-08-09T00:32:25.269Z,100.00
2022-08-09T00:34:54.442Z,100.00
2022-08-09T00:37:23.068Z,100.00
2022-08-09T00:40:13.729Z,100.00
2022-08-09T00:44:10.305Z,100.00
2022-08-09T00:45:30.468Z,100.00
2022-08-09T00:48:06.339Z,100.00
2022-08-09T00:50:37.896Z,100.00
2022-08-09T00:53:08.822Z,100.00
2022-08-09T00:56:04.693Z,100.00
2022-08-09T00:58:30.547Z,100.00
2022-08-09T01:01:00.735Z,100.00
2022-08-09T01:03:46.800Z,100.00
2022-08-09T01:06:53.433Z,100.00
2022-08-09T01:09:26.477Z,100.00
2022-08-09T01:12:13.756Z,100.00
2022-08-09T01:14:57.005Z,100.00
2022-08-09T01:17:34.573Z,100.00
2022-08-09T01:20:09.548Z,100.00
2022-08-09T01:24:00.747Z,100.00
2022-08-09T01:26:09.851Z,100.00
2022-08-09T01:28:45.403Z,100.00
2022-08-09T01:32:28.189Z,100.00
2022-08-09T01:34:09.378Z,100.00
2022-08-09T01:36:40.133Z,100.00
2022-08-09T01:39:09.215Z,100.00
2022-08-09T01:41:57.246Z,100.00
2022-08-09T01:44:32.036Z,100.00
2022-08-09T01:47:02.263Z,100.00
2022-08-09T01:49:39.081Z,100.00
2022-08-09T01:52:15.414Z,100.00
2022-08-09T01:54:48.520Z,100.00
2022-08-09T01:57:20.509Z,100.00
2022-08-09T01:59:53.704Z,100.00
2022-08-09T02:02:32.176Z,100.00
2022-08-09T02:05:05.632Z,100.00
2022-08-09T02:08:40.977Z,100.00
2022-08-09T02:10:38.508Z,100.00
2022-08-09T02:13:11.214Z,100.00
2022-08-09T02:15:49.439Z,100.00
2022-08-09T02:18:23.854Z,100.00
2022-08-09T02:20:57.107Z,100.00
2022-08-09T02:23:40.222Z,100.00
2022-08-09T02:26:26.776Z,100.00
2022-08-09T02:29:00.425Z,100.00
2022-08-09T02:31:35.454Z,100.00
2022-08-09T02:34:26.007Z,100.00
2022-08-09T02:37:07.215Z,100.00
2022-08-09T02:39:45.202Z,100.00
2022-08-09T02:42:24.828Z,100.00
2022-08-09T02:45:06.732Z,100.00
2022-08-09T02:47:57.968Z,100.00
2022-08-09T02:50:32.374Z,100.00
2022-08-09T02:53:08.356Z,100.00
2022-08-09T02:55:46.246Z,100.00
2022-08-09T02:58:36.876Z,100.00
2022-08-09T03:01:10.642Z,100.00
2022-08-09T03:04:17.231Z,100.00
2022-08-09T03:06:32.950Z,100.00
2022-08-09T03:09:03.023Z,100.00
2022-08-09T03:12:05.470Z,100.00
2022-08-09T03:14:28.289Z,100.00
2022-08-09T03:16:58.724Z,100.00
2022-08-09T03:19:58.002Z,100.00
2022-08-09T03:22:25.689Z,100.00
2022-08-09T03:25:06.186Z,100.00
2022-08-09T03:27:52.016Z,100.00
2022-08-09T03:30:29.991Z,100.00
2022-08-09T03:33:17.168Z,100.00
2022-08-09T03:36:13.142Z,100.00
2022-08-09T03:38:42.145Z,100.00
2022-08-09T03:41:14.791Z,100.00
2022-08-09T03:44:03.964Z,100.00
2022-08-09T03:46:36.658Z,100.00
2022-08-09T03:49:08.957Z,100.00
2022-08-09T03:51:43.974Z,100.00
2022-08-09T03:54:29.198Z,100.00
2022-08-09T03:57:00.675Z,100.00
2022-08-09T03:59:52.927Z,100.00
2022-08-09T04:02:26.137Z,100.00
2022-08-09T04:04:57.034Z,100.00
2022-08-09T04:07:33.638Z,100.00
2022-08-09T04:10:28.823Z,100.00
2022-08-09T04:13:03.977Z,100.00
2022-08-09T04:16:17.314Z,100.00
2022-08-09T04:18:22.326Z,100.00
2022-08-09T04:20:53.755Z,100.00
2022-08-09T04:23:25.724Z,100.00
2022-08-09T04:25:54.952Z,100.00
2022-08-09T04:28:33.484Z,100.00
2022-08-09T04:31:13.012Z,100.00
2022-08-09T04:33:47.508Z,100.00
2022-08-09T04:36:24.435Z,100.00
2022-08-09T04:38:55.420Z,100.00
2022-08-09T04:41:33.038Z,100.00
2022-08-09T04:44:06.959Z,100.00
2022-08-09T04:46:59.351Z,100.00
2022-08-09T04:49:52.863Z,100.00
2022-08-09T04:52:32.561Z,100.00
2022-08-09T04:55:04.159Z,100.00
2022-08-09T04:57:58.481Z,100.00
2022-08-09T05:00:31.945Z,100.00
2022-08-09T05:03:30.037Z,100.00
2022-08-09T05:06:06.669Z,100.00
2022-08-09T05:08:36.755Z,100.00
2022-08-09T05:11:08.941Z,100.00
2022-08-09T05:13:38.790Z,100.00
2022-08-09T05:16:08.627Z,100.00
2022-08-09T05:18:57.529Z,100.00
2022-08-09T05:21:29.625Z,100.00
2022-08-09T05:24:01.360Z,100.00
2022-08-09T05:26:36.990Z,100.00
2022-08-09T05:29:22.092Z,100.00
2022-08-09T05:31:57.355Z,100.00
2022-08-09T05:34:31.155Z,100.00
2022-08-09T05:37:06.071Z,100.00
2022-08-09T05:39:43.480Z,100.00
2022-08-09T05:42:17.273Z,100.00
2022-08-09T05:44:52.176Z,100.00
2022-08-09T05:47:22.629Z,100.00
2022-08-09T05:50:29.895Z,100.00
2022-08-09T05:52:41.851Z,100.00
2022-08-09T05:55:18.266Z,100.00
2022-08-09T05:57:57.604Z,100.00
2022-08-09T06:00:29.084Z,100.00
2022-08-09T06:02:59.007Z,100.00
2022-08-09T06:05:31.031Z,100.00
2022-08-09T06:08:18.917Z,100.00
2022-08-09T06:10:49.809Z,100.00
2022-08-09T06:13:20.487Z,100.00
2022-08-09T06:15:51.367Z,100.00
2022-08-09T06:18:23.844Z,100.00
2022-08-09T06:20:54.702Z,100.00
2022-08-09T06:23:57.995Z,100.00
2022-08-09T06:26:21.233Z,100.00
2022-08-09T06:29:00.368Z,100.00
2022-08-09T06:31:31.600Z,100.00
2022-08-09T06:34:09.590Z,100.00
2022-08-09T06:36:43.834Z,100.00
2022-08-09T06:39:13.620Z,100.00
2022-08-09T06:42:08.959Z,100.00
2022-08-09T06:44:34.649Z,100.00
2022-08-09T06:47:04.444Z,100.00
2022-08-09T06:49:52.385Z,100.00
2022-08-09T06:52:26.251Z,100.00
2022-08-09T06:54:55.203Z,100.00
2022-08-09T06:57:25.831Z,100.00
2022-08-09T07:00:54.788Z,100.00
2022-08-09T07:03:06.128Z,100.00
2022-08-09T07:05:53.746Z,100.00
2022-08-09T07:08:24.710Z,100.00
2022-08-09T07:10:53.863Z,100.00
2022-08-09T07:13:27.943Z,100.00
2022-08-09T07:16:41.707Z,100.00
2022-08-09T07:18:49.979Z,100.00
2022-08-09T07:21:18.947Z,100.00
2022-08-09T07:23:58.136Z,100.00
2022-08-09T07:26:27.612Z,100.00
2022-08-09T07:29:08.200Z,100.00
2022-08-09T07:31:45.373Z,100.00
2022-08-09T07:34:20.644Z,100.00
2022-08-09T07:36:50.403Z,100.00
2022-08-09T07:39:40.492Z,100.00
2022-08-09T07:42:11.588Z,100.00
2022-08-09T07:44:51.769Z,100.00
2022-08-09T07:47:24.423Z,100.00
2022-08-09T07:50:04.411Z,100.00
2022-08-09T07:52:38.514Z,100.00
2022-08-09T07:55:10.005Z,100.00
2022-08-09T07:57:47.019Z,100.00
2022-08-09T08:00:20.485Z,100.00
2022-08-09T08:03:08.384Z,100.00
2022-08-09T08:05:57.641Z,100.00
2022-08-09T08:09:01.897Z,100.00
2022-08-09T08:12:24.034Z,100.00
2022-08-09T08:14:06.463Z,100.00
2022-08-09T08:16:35.276Z,100.00
2022-08-09T08:19:09.741Z,100.00
2022-08-09T08:21:39.590Z,100.00
2022-08-09T08:24:12.232Z,99.63
2022-08-09T08:26:56.254Z,92.30
2022-08-09T08:29:28.108Z,85.93
2022-08-09T08:32:04.302Z,81.74
2022-08-09T08:34:36.595Z,72.55
2022-08-09T08:37:05.781Z,67.93
2022-08-09T08:39:43.500Z,64.43
2022-08-09T08:42:13.698Z,61.45
2022-08-09T08:44:46.339Z,58.96
2022-08-09T08:47:16.433Z,56.59
2022-08-09T08:49:49.312Z,55.93
2022-08-09T08:52:52.653Z,56.62
2022-08-09T08:55:10.401Z,56.64
2022-08-09T08:57:39.236Z,54.38
2022-08-09T09:00:16.976Z,56.99
2022-08-09T09:03:12.374Z,54.63
2022-08-09T09:05:58.618Z,52.35
2022-08-09T09:08:37.705Z,50.39
2022-08-09T09:11:17.887Z,50.51
2022-08-09T09:13:56.743Z,54.07
2022-08-09T09:16:30.855Z,51.59
2022-08-09T09:19:37.275Z,48.94
2022-08-09T09:22:26.612Z,46.71
2022-08-09T09:26:02.378Z,44.69
2022-08-09T09:28:06.344Z,46.60
2022-08-09T09:30:52.868Z,51.45
2022-08-09T09:33:21.987Z,48.83
2022-08-09T09:36:02.626Z,48.67
2022-08-09T09:38:48.248Z,46.35
2022-08-09T09:41:32.737Z,46.76
2022-08-09T09:44:11.470Z,46.19
2022-08-09T09:46:50.899Z,45.14
2022-08-09T09:49:56.534Z,44.23
2022-08-09T09:52:16.266Z,42.94
2022-08-09T09:54:48.691Z,42.59
2022-08-09T09:58:02.503Z,43.05
2022-08-09T10:00:24.919Z,43.30
2022-08-09T10:02:55.638Z,41.84
2022-08-09T10:05:27.065Z,39.96
2022-08-09T10:08:27.927Z,42.26
2022-08-09T10:10:58.665Z,42.33
2022-08-09T10:13:43.315Z,43.84
2022-08-09T10:16:57.723Z,46.43
2022-08-09T10:19:06.302Z,47.82
2022-08-09T10:21:48.769Z,47.61
2022-08-09T10:24:31.386Z,51.54
2022-08-09T10:27:10.347Z,50.39
2022-08-09T10:30:49.435Z,52.61
2022-08-09T10:32:42.253Z,50.59
2022-08-09T10:35:13.320Z,47.71
2022-08-09T10:37:42.192Z,52.30
2022-08-09T10:40:35.208Z,55.76
2022-08-09T10:43:03.723Z,59.24
2022-08-09T10:45:35.539Z,59.85
2022-08-09T10:48:26.323Z,63.93
2022-08-09T10:51:09.640Z,64.92
2022-08-09T10:53:54.816Z,61.92
2022-08-09T10:56:26.892Z,58.65
2022-08-09T10:58:58.799Z,62.07
2022-08-09T11:03:14.429Z,63.62
2022-08-09T11:04:32.639Z,64.30
2022-08-09T11:07:27.767Z,68.09
2022-08-09T11:10:16.507Z,67.61
2022-08-09T11:13:49.522Z,68.55
2022-08-09T11:16:37.315Z,71.06
2022-08-09T11:19:11.349Z,71.17
2022-08-09T11:21:56.851Z,67.87
2022-08-09T11:25:04.707Z,66.35
2022-08-09T11:28:03.692Z,69.27
2022-08-09T11:30:34.637Z,70.82
2022-08-09T11:33:13.149Z,72.09
2022-08-09T11:35:50.168Z,75.36
2022-08-09T11:38:32.592Z,75.28
2022-08-09T11:41:05.133Z,76.16
2022-08-09T11:43:42.301Z,77.69
2022-08-09T11:46:11.120Z,73.54
2022-08-09T11:48:52.299Z,73.29
2022-08-09T11:53:00.836Z,72.24
2022-08-09T11:54:29.032Z,73.98
2022-08-09T11:57:47.363Z,80.08
2022-08-09T12:00:30.783Z,76.02
2022-08-09T12:03:50.254Z,76.45
2022-08-09T12:05:52.882Z,78.63
2022-08-09T12:08:24.039Z,79.88
2022-08-09T12:10:55.654Z,82.43
2022-08-09T12:14:07.941Z,82.90
2022-08-09T12:16:37.383Z,82.22
2022-08-09T12:19:09.670Z,82.80
2022-08-09T12:21:50.720Z,83.67
2022-08-09T12:24:25.654Z,82.63
2022-08-09T12:29:13.811Z,82.56
2022-08-09T12:30:01.771Z,80.83
2022-08-09T12:32:44.235Z,78.71
2022-08-09T12:35:19.153Z,79.55
2022-08-09T12:37:51.823Z,78.10
2022-08-09T12:40:23.385Z,76.93
2022-08-09T12:42:54.165Z,76.43
2022-08-09T12:45:33.707Z,75.68
2022-08-09T12:48:04.597Z,75.99
2022-08-09T12:50:35.796Z,73.43
2022-08-09T12:53:09.651Z,70.14
2022-08-09T12:56:15.156Z,71.24
2022-08-09T12:58:42.499Z,70.16
2022-08-09T13:01:26.512Z,69.17
2022-08-09T13:03:59.718Z,69.02
2022-08-09T13:06:34.044Z,67.87
2022-08-09T13:09:09.060Z,67.47
2022-08-09T13:11:42.266Z,69.24
2022-08-09T13:14:40.942Z,70.49
2022-08-09T13:17:08.594Z,71.20
2022-08-09T13:20:09.040Z,72.88
2022-08-09T13:22:35.195Z,73.68
2022-08-09T13:25:11.899Z,73.75
2022-08-09T13:27:48.603Z,71.56
2022-08-09T13:30:50.819Z,75.65
2022-08-09T13:33:23.993Z,73.57
2022-08-09T13:36:41.467Z,72.48
2022-08-09T13:38:57.506Z,71.17
2022-08-09T13:41:58.353Z,71.45
2022-08-09T13:44:17.881Z,72.89
2022-08-09T13:47:29.789Z,71.24
2022-08-09T13:49:55.787Z,70.78
2022-08-09T13:52:26.027Z,70.41
2022-08-09T13:55:00.115Z,71.98
2022-08-09T13:57:39.317Z,73.40
2022-08-09T14:00:12.985Z,71.00
2022-08-09T14:03:03.222Z,69.63
2022-08-09T14:06:00.034Z,73.75
2022-08-09T14:08:21.631Z,75.97
2022-08-09T14:10:52.883Z,73.67
2022-08-09T14:14:15.945Z,72.73
2022-08-09T14:16:16.195Z,73.41
2022-08-09T14:18:49.822Z,74.09
2022-08-09T14:21:22.493Z,73.54
2022-08-09T14:23:55.263Z,73.64
2022-08-09T14:26:25.394Z,74.09
2022-08-09T14:29:07.953Z,74.22
2022-08-09T14:31:54.759Z,75.26
2022-08-09T14:34:31.134Z,75.77
2022-08-09T14:37:07.428Z,75.28
2022-08-09T14:39:45.562Z,73.71
2022-08-09T14:42:31.670Z,72.38
2022-08-09T14:46:58.524Z,72.36
2022-08-09T14:47:58.041Z,72.67
2022-08-09T14:50:32.772Z,72.44
2022-08-09T14:53:02.610Z,71.05
2022-08-09T14:55:32.787Z,70.84
2022-08-09T14:58:03.644Z,72.57
2022-08-09T15:00:36.486Z,72.99
2022-08-09T15:03:07.032Z,71.52
2022-08-09T15:05:36.503Z,71.86
2022-08-09T15:08:05.892Z,71.42
2022-08-09T15:10:39.859Z,71.82
2022-08-09T15:13:08.755Z,71.45
2022-08-09T15:15:39.742Z,72.70
2022-08-09T15:18:14.613Z,72.25
2022-08-09T15:21:56.529Z,73.70
2022-08-09T15:24:05.612Z,73.63
2022-08-09T15:26:30.736Z,72.80
2022-08-09T15:29:04.118Z,72.21
2022-08-09T15:31:42.026Z,71.61
2022-08-09T15:34:31.827Z,72.37
2022-08-09T15:37:04.236Z,71.57
2022-08-09T15:39:43.749Z,72.01
2022-08-09T15:42:22.310Z,70.78
2022-08-09T15:44:51.414Z,70.96
2022-08-09T15:47:22.645Z,70.68
2022-08-09T15:50:04.234Z,70.03
2022-08-09T15:52:35.184Z,69.18
2022-08-09T15:55:04.178Z,69.61
2022-08-09T15:57:35.147Z,69.80
2022-08-09T16:00:08.406Z,70.86
2022-08-09T16:02:38.797Z,67.78
2022-08-09T16:05:08.849Z,70.73
2022-08-09T16:07:45.737Z,72.10
2022-08-09T16:10:38.591Z,71.76
2022-08-09T16:13:03.746Z,70.91
2022-08-09T16:16:04.629Z,69.98
2022-08-09T16:18:22.280Z,74.04
2022-08-09T16:20:51.445Z,74.70
2022-08-09T16:23:21.619Z,73.58
2022-08-09T16:25:50.233Z,73.84
2022-08-09T16:28:18.759Z,73.48
2022-08-09T16:30:58.814Z,70.36
2022-08-09T16:33:30.947Z,70.07
2022-08-09T16:36:10.736Z,70.21
2022-08-09T16:38:43.151Z,70.66
2022-08-09T16:41:16.776Z,71.23
2022-08-09T16:43:47.050Z,71.48
2022-08-09T16:46:18.528Z,72.25
2022-08-09T16:48:59.972Z,73.63
2022-08-09T16:51:37.510Z,72.60
2022-08-09T16:54:28.299Z,72.67
2022-08-09T16:56:55.031Z,74.12
2022-08-09T16:59:25.056Z,74.16
2022-08-09T17:01:53.949Z,72.82
2022-08-09T17:04:28.878Z,75.04
2022-08-09T17:08:41.664Z,77.54
2022-08-09T17:09:47.582Z,77.92
2022-08-09T17:12:17.063Z,78.45
2022-08-09T17:14:46.369Z,79.37
2022-08-09T17:17:26.234Z,80.09
2022-08-09T17:20:28.298Z,78.92
2022-08-09T17:22:52.063Z,78.51
2022-08-09T17:25:23.527Z,77.42
2022-08-09T17:27:54.394Z,77.10
2022-08-09T17:30:25.701Z,77.54
2022-08-09T17:33:00.932Z,73.71
2022-08-09T17:35:41.140Z,78.16
2022-08-09T17:38:32.654Z,75.77
2022-08-09T17:41:00.815Z,73.82
2022-08-09T17:43:35.087Z,75.42
2022-08-09T17:46:07.095Z,76.52
2022-08-09T17:48:39.476Z,76.84
2022-08-09T17:51:17.252Z,76.21
2022-08-09T17:53:51.559Z,78.00
2022-08-09T17:56:21.657Z,80.90
2022-08-09T17:58:50.199Z,79.11
2022-08-09T18:01:22.572Z,80.96
2022-08-09T18:03:54.235Z,82.88
2022-08-09T18:06:32.275Z,84.33
2022-08-09T18:09:03.526Z,84.31
2022-08-09T18:12:05.727Z,85.80
2022-08-09T18:14:23.597Z,85.61
2022-08-09T18:16:53.983Z,85.69
2022-08-09T18:20:55.070Z,86.76
2022-08-09T18:22:17.003Z,88.45
2022-08-09T18:24:46.713Z,88.48
2022-08-09T18:27:49.217Z,88.43
2022-08-09T18:30:42.267Z,89.41
2022-08-09T18:32:54.962Z,89.52
2022-08-09T18:35:59.234Z,90.82
2022-08-09T18:38:14.287Z,91.81
2022-08-09T18:40:45.126Z,92.41
2022-08-09T18:43:15.755Z,92.66
2022-08-09T18:46:49.086Z,93.42
2022-08-09T18:48:33.731Z,94.03
2022-08-09T18:51:04.305Z,93.09
2022-08-09T18:53:56.445Z,93.15
2022-08-09T18:56:27.816Z,93.14
2022-08-09T18:58:57.141Z,94.59
2022-08-09T19:01:26.095Z,94.93
2022-08-09T19:04:06.380Z,95.85
2022-08-09T19:06:38.393Z,97.49
2022-08-09T19:09:13.633Z,99.28
2022-08-09T19:11:57.770Z,100.00
2022-08-09T19:14:29.123Z,100.00
2022-08-09T19:16:58.133Z,100.00
2022-08-09T19:19:28.246Z,100.00
2022-08-09T19:22:07.165Z,100.00
2022-08-09T19:25:09.925Z,100.00
2022-08-09T19:27:28.669Z,100.00
2022-08-09T19:30:21.497Z,100.00
2022-08-09T19:32:46.197Z,100.00
2022-08-09T19:35:26.075Z,100.00
2022-08-09T19:37:57.844Z,100.00
2022-08-09T19:40:33.958Z,100.00
2022-08-09T19:43:10.334Z,100.00
2022-08-09T19:45:44.902Z,100.00
2022-08-09T19:48:15.892Z,100.00
2022-08-09T19:51:04.814Z,100.00
2022-08-09T19:53:45.229Z,100.00
2022-08-09T19:56:17.417Z,100.00
2022-08-09T19:59:40.110Z,100.00
2022-08-09T20:01:53.228Z,100.00
2022-08-09T20:04:40.518Z,100.00
2022-08-09T20:07:22.417Z,100.00
2022-08-09T20:09:51.334Z,100.00
2022-08-09T20:12:29.801Z,100.00
2022-08-09T20:16:35.815Z,100.00
2022-08-09T20:17:54.913Z,100.00
2022-08-09T20:20:24.634Z,100.00
2022-08-09T20:22:56.074Z,100.00
2022-08-09T20:25:25.420Z,100.00
2022-08-09T20:27:55.709Z,100.00
2022-08-09T20:30:25.024Z,100.00
2022-08-09T20:32:53.871Z,100.00
2022-08-09T20:35:22.589Z,100.00
2022-08-09T20:38:20.965Z,100.00
2022-08-09T20:40:41.150Z,100.00
2022-08-09T20:43:18.404Z,100.00
2022-08-09T20:45:59.710Z,100.00
2022-08-09T20:48:31.810Z,100.00
2022-08-09T20:51:01.354Z,100.00
2022-08-09T20:53:36.348Z,100.00
2022-08-09T20:56:20.397Z,100.00
2022-08-09T20:58:57.836Z,100.00
2022-08-09T21:01:34.931Z,100.00
2022-08-09T21:05:54.125Z,100.00
2022-08-09T21:07:11.678Z,100.00
2022-08-09T21:09:55.401Z,100.00
2022-08-09T21:15:16.467Z,100.00
2022-08-09T21:18:22.356Z,100.00
2022-08-09T21:20:35.725Z,100.00
2022-08-09T21:23:04.997Z,100.00
2022-08-09T21:25:59.156Z,100.00
2022-08-09T21:28:33.805Z,100.00
2022-08-09T21:31:16.880Z,100.00
2022-08-09T21:33:50.358Z,100.00
2022-08-09T21:36:23.210Z,100.00
2022-08-09T21:38:57.782Z,100.00
2022-08-09T21:42:05.178Z,100.00
2022-08-09T21:44:34.404Z,100.00
2022-08-09T21:47:08.687Z,100.00
2022-08-09T21:49:40.246Z,100.00
2022-08-09T21:52:14.942Z,100.00
2022-08-09T21:55:03.132Z,100.00
2022-08-09T21:57:39.513Z,100.00
2022-08-09T22:00:25.968Z,100.00
2022-08-09T22:02:59.497Z,100.00
2022-08-09T22:05:36.109Z,100.00
2022-08-09T22:08:13.842Z,100.00
2022-08-09T22:11:50.228Z,100.00
2022-08-09T22:13:34.936Z,100.00
2022-08-09T22:16:07.850Z,100.00
2022-08-09T22:18:54.484Z,100.00
2022-08-09T22:21:27.377Z,100.00
2022-08-09T22:24:16.925Z,100.00
2022-08-09T22:26:51.045Z,100.00
2022-08-09T22:29:26.814Z,100.00
2022-08-09T22:32:01.246Z,100.00
2022-08-09T22:34:31.238Z,100.00
2022-08-09T22:37:00.483Z,100.00
2022-08-09T22:39:55.781Z,100.00
2022-08-09T22:42:22.692Z,100.00
2022-08-09T22:45:00.141Z,100.00
2022-08-09T22:48:16.013Z,100.00
2022-08-09T22:50:33.315Z,100.00
2022-08-09T22:53:03.629Z,100.00
2022-08-09T22:56:06.249Z,100.00
2022-08-09T22:58:33.150Z,100.00
2022-08-09T23:01:03.568Z,100.00
2022-08-09T23:04:03.866Z,100.00
2022-08-09T23:06:29.961Z,100.00
2022-08-09T23:09:06.164Z,100.00
2022-08-09T23:11:35.601Z,100.00
2022-08-09T23:14:10.261Z,100.00
2022-08-09T23:16:46.532Z,100.00
2022-08-09T23:19:15.120Z,100.00
2022-08-09T23:21:44.986Z,100.00
2022-08-09T23:24:13.771Z,100.00
2022-08-09T23:26:42.642Z,100.00
2022-08-09T23:29:13.947Z,100.00
2022-08-09T23:31:43.137Z,100.00
2022-08-09T23:34:11.905Z,100.00
2022-08-09T23:36:41.095Z,100.00
2022-08-09T23:39:11.113Z,100.00
2022-08-09T23:41:39.638Z,100.00
2022-08-09T23:44:08.186Z,100.00
2022-08-09T23:46:36.710Z,100.00
2022-08-09T23:49:05.500Z,100.00
2022-08-09T23:51:34.118Z,100.00
2022-08-09T23:54:03.534Z,100.00
2022-08-09T23:56:52.394Z,100.00
2022-08-09T23:59:24.486Z,100.00
